sensor_id;sensor_type;location;lat;lon;timestamp;P1;durP1;ratioP1;P2;durP2;ratioP2
75165;SDS011;63747;48.042;10.088;2022-10-17T00:05:01;5.10;;;1.60;;
75165;SDS011;63747;48.042;10.088;2022-10-17T00:08:02;5.07;;;1.88;;
75165;SDS011;63747;48.042;10.088;2022-10-17T00:11:04;6.22;;;1.92;;
75165;SDS011;63747;48.042;10.088;2022-10-17T00:14:08;5.65;;;1.85;;
75165;SDS011;63747;48.042;10.088;2022-10-17T00:21:05;6.75;;;2.08;;
75165;SDS011;63747;48.042;10.088;2022-10-17T00:24:15;5.68;;;1.80;;
75165;SDS011;63747;48.042;10.088;2022-10-17T00:27:16;5.60;;;1.77;;
75165;SDS011;63747;48.042;10.088;2022-10-17T00:30:17;4.10;;;1.80;;
75165;SDS011;63747;48.042;10.088;2022-10-17T00:33:18;4.32;;;1.50;;
75165;SDS011;63747;48.042;10.088;2022-10-17T00:36:20;3.20;;;1.52;;
75165;SDS011;63747;48.042;10.088;2022-10-17T00:39:23;4.03;;;1.60;;
75165;SDS011;63747;48.042;10.088;2022-10-17T00:42:24;2.75;;;1.70;;
75165;SDS011;63747;48.042;10.088;2022-10-17T00:45:27;7.00;;;1.50;;
75165;SDS011;63747;48.042;10.088;2022-10-17T00:48:29;5.72;;;1.52;;
75165;SDS011;63747;48.042;10.088;2022-10-17T00:51:35;6.78;;;1.40;;
75165;SDS011;63747;48.042;10.088;2022-10-17T00:54:52;5.30;;;1.40;;
75165;SDS011;63747;48.042;10.088;2022-10-17T00:57:58;7.50;;;1.80;;
75165;SDS011;63747;48.042;10.088;2022-10-17T01:01:02;3.80;;;1.70;;
75165;SDS011;63747;48.042;10.088;2022-10-17T01:04:03;7.35;;;2.10;;
75165;SDS011;63747;48.042;10.088;2022-10-17T01:07:04;4.35;;;1.80;;
75165;SDS011;63747;48.042;10.088;2022-10-17T01:13:32;5.82;;;1.60;;
75165;SDS011;63747;48.042;10.088;2022-10-17T01:16:43;6.35;;;2.08;;
75165;SDS011;63747;48.042;10.088;2022-10-17T01:40:28;8.13;;;2.45;;
75165;SDS011;63747;48.042;10.088;2022-10-17T01:43:43;3.85;;;2.28;;
75165;SDS011;63747;48.042;10.088;2022-10-17T01:46:53;4.97;;;2.50;;
75165;SDS011;63747;48.042;10.088;2022-10-17T01:50:05;4.82;;;3.08;;
75165;SDS011;63747;48.042;10.088;2022-10-17T01:53:12;8.10;;;2.92;;
75165;SDS011;63747;48.042;10.088;2022-10-17T01:56:19;6.40;;;3.08;;
75165;SDS011;63747;48.042;10.088;2022-10-17T01:59:26;8.02;;;3.00;;
75165;SDS011;63747;48.042;10.088;2022-10-17T02:02:34;8.80;;;3.28;;
75165;SDS011;63747;48.042;10.088;2022-10-17T02:05:38;3.47;;;2.88;;
75165;SDS011;63747;48.042;10.088;2022-10-17T02:08:45;5.82;;;3.35;;
75165;SDS011;63747;48.042;10.088;2022-10-17T02:19:21;5.97;;;3.20;;
75165;SDS011;63747;48.042;10.088;2022-10-17T02:22:34;4.40;;;3.45;;
75165;SDS011;63747;48.042;10.088;2022-10-17T02:25:44;7.90;;;3.60;;
75165;SDS011;63747;48.042;10.088;2022-10-17T02:31:57;6.05;;;3.15;;
75165;SDS011;63747;48.042;10.088;2022-10-17T02:35:20;6.10;;;3.10;;
75165;SDS011;63747;48.042;10.088;2022-10-17T02:38:24;7.20;;;3.08;;
75165;SDS011;63747;48.042;10.088;2022-10-17T02:41:39;4.95;;;3.15;;
75165;SDS011;63747;48.042;10.088;2022-10-17T02:44:43;12.65;;;3.20;;
75165;SDS011;63747;48.042;10.088;2022-10-17T02:47:56;9.65;;;3.28;;
75165;SDS011;63747;48.042;10.088;2022-10-17T02:51:12;6.43;;;3.45;;
75165;SDS011;63747;48.042;10.088;2022-10-17T02:54:57;5.53;;;3.33;;
75165;SDS011;63747;48.042;10.088;2022-10-17T02:58:03;5.35;;;3.35;;
75165;SDS011;63747;48.042;10.088;2022-10-17T03:01:09;5.30;;;3.75;;
75165;SDS011;63747;48.042;10.088;2022-10-17T03:04:11;10.57;;;3.60;;
75165;SDS011;63747;48.042;10.088;2022-10-17T03:07:13;5.82;;;2.85;;
75165;SDS011;63747;48.042;10.088;2022-10-17T03:10:21;8.97;;;3.10;;
75165;SDS011;63747;48.042;10.088;2022-10-17T03:13:22;4.03;;;3.03;;
75165;SDS011;63747;48.042;10.088;2022-10-17T03:16:22;6.40;;;3.00;;
75165;SDS011;63747;48.042;10.088;2022-10-17T03:19:27;5.63;;;2.93;;
75165;SDS011;63747;48.042;10.088;2022-10-17T03:22:28;5.47;;;2.88;;
75165;SDS011;63747;48.042;10.088;2022-10-17T03:25:31;5.53;;;3.10;;
75165;SDS011;63747;48.042;10.088;2022-10-17T03:28:31;6.38;;;3.13;;
75165;SDS011;63747;48.042;10.088;2022-10-17T03:31:33;6.70;;;3.10;;
75165;SDS011;63747;48.042;10.088;2022-10-17T03:34:33;6.07;;;3.10;;
75165;SDS011;63747;48.042;10.088;2022-10-17T03:37:34;5.43;;;3.07;;
75165;SDS011;63747;48.042;10.088;2022-10-17T03:40:42;6.93;;;2.90;;
75165;SDS011;63747;48.042;10.088;2022-10-17T03:43:42;6.00;;;2.90;;
75165;SDS011;63747;48.042;10.088;2022-10-17T03:46:43;6.77;;;3.00;;
75165;SDS011;63747;48.042;10.088;2022-10-17T03:49:44;7.87;;;3.30;;
75165;SDS011;63747;48.042;10.088;2022-10-17T03:52:58;4.45;;;2.72;;
75165;SDS011;63747;48.042;10.088;2022-10-17T03:56:16;10.98;;;3.10;;
75165;SDS011;63747;48.042;10.088;2022-10-17T03:59:18;10.13;;;3.35;;
75165;SDS011;63747;48.042;10.088;2022-10-17T04:02:19;8.87;;;3.37;;
75165;SDS011;63747;48.042;10.088;2022-10-17T04:05:20;6.40;;;2.80;;
75165;SDS011;63747;48.042;10.088;2022-10-17T04:08:21;4.03;;;2.63;;
75165;SDS011;63747;48.042;10.088;2022-10-17T04:11:22;4.47;;;2.60;;
75165;SDS011;63747;48.042;10.088;2022-10-17T04:14:22;6.33;;;2.60;;
75165;SDS011;63747;48.042;10.088;2022-10-17T04:17:23;6.07;;;2.60;;
75165;SDS011;63747;48.042;10.088;2022-10-17T04:20:24;3.57;;;2.20;;
75165;SDS011;63747;48.042;10.088;2022-10-17T04:23:25;6.53;;;1.87;;
75165;SDS011;63747;48.042;10.088;2022-10-17T04:26:26;6.95;;;2.10;;
75165;SDS011;63747;48.042;10.088;2022-10-17T04:29:27;8.45;;;1.98;;
75165;SDS011;63747;48.042;10.088;2022-10-17T04:39:19;6.15;;;2.20;;
75165;SDS011;63747;48.042;10.088;2022-10-17T04:42:20;7.47;;;2.40;;
75165;SDS011;63747;48.042;10.088;2022-10-17T04:45:29;5.15;;;2.65;;
75165;SDS011;63747;48.042;10.088;2022-10-17T04:48:40;4.53;;;2.40;;
75165;SDS011;63747;48.042;10.088;2022-10-17T04:51:56;10.27;;;2.25;;
75165;SDS011;63747;48.042;10.088;2022-10-17T04:54:57;7.82;;;2.78;;
75165;SDS011;63747;48.042;10.088;2022-10-17T04:57:59;14.03;;;2.70;;
75165;SDS011;63747;48.042;10.088;2022-10-17T05:01:07;6.00;;;2.85;;
75165;SDS011;63747;48.042;10.088;2022-10-17T05:04:09;5.60;;;3.60;;
75165;SDS011;63747;48.042;10.088;2022-10-17T05:07:15;8.97;;;3.23;;
75165;SDS011;63747;48.042;10.088;2022-10-17T05:10:15;4.88;;;3.33;;
75165;SDS011;63747;48.042;10.088;2022-10-17T05:13:16;12.57;;;3.17;;
75165;SDS011;63747;48.042;10.088;2022-10-17T05:16:17;7.60;;;3.00;;
75165;SDS011;63747;48.042;10.088;2022-10-17T05:19:20;7.97;;;3.40;;
75165;SDS011;63747;48.042;10.088;2022-10-17T05:28:33;5.60;;;3.10;;
75165;SDS011;63747;48.042;10.088;2022-10-17T05:31:46;6.35;;;2.97;;
75165;SDS011;63747;48.042;10.088;2022-10-17T05:34:47;8.82;;;3.00;;
75165;SDS011;63747;48.042;10.088;2022-10-17T05:37:49;8.10;;;3.13;;
75165;SDS011;63747;48.042;10.088;2022-10-17T05:40:50;6.00;;;3.15;;
75165;SDS011;63747;48.042;10.088;2022-10-17T05:43:51;7.10;;;3.25;;
75165;SDS011;63747;48.042;10.088;2022-10-17T05:46:52;8.43;;;3.57;;
75165;SDS011;63747;48.042;10.088;2022-10-17T05:49:53;9.40;;;3.20;;
75165;SDS011;63747;48.042;10.088;2022-10-17T05:52:53;8.73;;;3.03;;
75165;SDS011;63747;48.042;10.088;2022-10-17T05:55:58;8.73;;;3.40;;
75165;SDS011;63747;48.042;10.088;2022-10-17T05:59:00;7.10;;;2.92;;
75165;SDS011;63747;48.042;10.088;2022-10-17T06:02:01;8.45;;;3.72;;
75165;SDS011;63747;48.042;10.088;2022-10-17T06:05:02;10.83;;;3.70;;
75165;SDS011;63747;48.042;10.088;2022-10-17T06:08:03;14.73;;;6.35;;
75165;SDS011;63747;48.042;10.088;2022-10-17T06:11:03;10.93;;;7.63;;
75165;SDS011;63747;48.042;10.088;2022-10-17T06:14:05;10.68;;;4.70;;
75165;SDS011;63747;48.042;10.088;2022-10-17T06:17:07;7.43;;;3.53;;
75165;SDS011;63747;48.042;10.088;2022-10-17T06:20:08;10.13;;;4.20;;
75165;SDS011;63747;48.042;10.088;2022-10-17T06:23:09;9.13;;;3.70;;
75165;SDS011;63747;48.042;10.088;2022-10-17T06:26:09;6.50;;;3.57;;
75165;SDS011;63747;48.042;10.088;2022-10-17T06:29:10;6.13;;;4.50;;
75165;SDS011;63747;48.042;10.088;2022-10-17T06:32:11;8.33;;;6.17;;
75165;SDS011;63747;48.042;10.088;2022-10-17T06:35:12;8.33;;;6.40;;
75165;SDS011;63747;48.042;10.088;2022-10-17T06:38:12;8.53;;;5.40;;
75165;SDS011;63747;48.042;10.088;2022-10-17T06:41:13;5.90;;;4.20;;
75165;SDS011;63747;48.042;10.088;2022-10-17T06:44:17;6.35;;;3.70;;
75165;SDS011;63747;48.042;10.088;2022-10-17T06:47:18;7.90;;;3.87;;
75165;SDS011;63747;48.042;10.088;2022-10-17T06:50:18;6.43;;;3.10;;
75165;SDS011;63747;48.042;10.088;2022-10-17T06:53:19;9.30;;;3.50;;
75165;SDS011;63747;48.042;10.088;2022-10-17T06:56:21;6.95;;;4.57;;
75165;SDS011;63747;48.042;10.088;2022-10-17T06:59:21;8.23;;;4.57;;
75165;SDS011;63747;48.042;10.088;2022-10-17T07:02:22;7.67;;;4.50;;
75165;SDS011;63747;48.042;10.088;2022-10-17T07:05:23;6.00;;;2.95;;
75165;SDS011;63747;48.042;10.088;2022-10-17T07:08:24;5.83;;;4.33;;
75165;SDS011;63747;48.042;10.088;2022-10-17T07:11:25;11.60;;;4.00;;
75165;SDS011;63747;48.042;10.088;2022-10-17T07:14:26;7.87;;;3.40;;
75165;SDS011;63747;48.042;10.088;2022-10-17T07:17:31;7.95;;;3.60;;
75165;SDS011;63747;48.042;10.088;2022-10-17T07:20:32;6.35;;;3.03;;
75165;SDS011;63747;48.042;10.088;2022-10-17T07:23:33;5.95;;;2.70;;
75165;SDS011;63747;48.042;10.088;2022-10-17T07:26:36;4.13;;;2.20;;
75165;SDS011;63747;48.042;10.088;2022-10-17T07:29:36;7.07;;;2.20;;
75165;SDS011;63747;48.042;10.088;2022-10-17T07:32:37;3.77;;;2.50;;
75165;SDS011;63747;48.042;10.088;2022-10-17T07:35:38;5.80;;;2.47;;
75165;SDS011;63747;48.042;10.088;2022-10-17T07:38:40;3.25;;;2.10;;
75165;SDS011;63747;48.042;10.088;2022-10-17T07:41:41;6.35;;;2.42;;
75165;SDS011;63747;48.042;10.088;2022-10-17T07:44:41;4.60;;;2.30;;
75165;SDS011;63747;48.042;10.088;2022-10-17T07:47:45;6.65;;;2.65;;
75165;SDS011;63747;48.042;10.088;2022-10-17T07:50:45;8.13;;;2.77;;
75165;SDS011;63747;48.042;10.088;2022-10-17T07:53:46;6.43;;;2.43;;
75165;SDS011;63747;48.042;10.088;2022-10-17T07:56:47;4.80;;;2.45;;
75165;SDS011;63747;48.042;10.088;2022-10-17T07:59:50;7.43;;;2.90;;
75165;SDS011;63747;48.042;10.088;2022-10-17T08:02:53;5.00;;;3.05;;
75165;SDS011;63747;48.042;10.088;2022-10-17T08:05:57;4.10;;;2.45;;
75165;SDS011;63747;48.042;10.088;2022-10-17T08:08:58;8.30;;;2.42;;
75165;SDS011;63747;48.042;10.088;2022-10-17T08:12:02;4.43;;;2.25;;
75165;SDS011;63747;48.042;10.088;2022-10-17T08:15:04;4.57;;;2.28;;
75165;SDS011;63747;48.042;10.088;2022-10-17T08:18:06;7.03;;;2.65;;
75165;SDS011;63747;48.042;10.088;2022-10-17T08:21:06;5.05;;;2.70;;
75165;SDS011;63747;48.042;10.088;2022-10-17T08:24:08;4.03;;;2.20;;
75165;SDS011;63747;48.042;10.088;2022-10-17T08:27:08;4.97;;;2.17;;
75165;SDS011;63747;48.042;10.088;2022-10-17T08:30:14;7.20;;;2.47;;
75165;SDS011;63747;48.042;10.088;2022-10-17T08:33:15;5.20;;;2.50;;
75165;SDS011;63747;48.042;10.088;2022-10-17T08:36:17;5.95;;;2.53;;
75165;SDS011;63747;48.042;10.088;2022-10-17T08:39:19;6.57;;;2.53;;
75165;SDS011;63747;48.042;10.088;2022-10-17T08:42:44;5.05;;;2.60;;
75165;SDS011;63747;48.042;10.088;2022-10-17T08:45:59;8.38;;;2.30;;
75165;SDS011;63747;48.042;10.088;2022-10-17T08:49:03;4.90;;;2.55;;
75165;SDS011;63747;48.042;10.088;2022-10-17T08:52:13;5.68;;;2.50;;
75165;SDS011;63747;48.042;10.088;2022-10-17T08:56:10;9.68;;;2.58;;
75165;SDS011;63747;48.042;10.088;2022-10-17T08:58:49;7.55;;;5.50;;
75165;SDS011;63747;48.042;10.088;2022-10-17T09:01:54;6.47;;;2.70;;
75165;SDS011;63747;48.042;10.088;2022-10-17T09:05:21;5.63;;;2.60;;
75165;SDS011;63747;48.042;10.088;2022-10-17T09:08:39;6.97;;;2.60;;
75165;SDS011;63747;48.042;10.088;2022-10-17T09:18:45;1.92;;;1.40;;
75165;SDS011;63747;48.042;10.088;2022-10-17T09:21:55;3.58;;;1.80;;
75165;SDS011;63747;48.042;10.088;2022-10-17T09:25:01;2.83;;;1.73;;
75165;SDS011;63747;48.042;10.088;2022-10-17T09:31:11;5.80;;;1.70;;
75165;SDS011;63747;48.042;10.088;2022-10-17T09:34:21;8.00;;;1.70;;
75165;SDS011;63747;48.042;10.088;2022-10-17T09:37:28;4.72;;;1.60;;
75165;SDS011;63747;48.042;10.088;2022-10-17T09:40:32;2.90;;;1.77;;
75165;SDS011;63747;48.042;10.088;2022-10-17T09:43:34;2.80;;;1.80;;
75165;SDS011;63747;48.042;10.088;2022-10-17T09:49:37;2.85;;;1.70;;
75165;SDS011;63747;48.042;10.088;2022-10-17T09:52:41;3.17;;;1.55;;
75165;SDS011;63747;48.042;10.088;2022-10-17T09:55:52;4.03;;;1.50;;
75165;SDS011;63747;48.042;10.088;2022-10-17T09:58:56;3.15;;;1.80;;
75165;SDS011;63747;48.042;10.088;2022-10-17T10:05:21;2.33;;;1.70;;
75165;SDS011;63747;48.042;10.088;2022-10-17T10:12:14;2.40;;;1.70;;
75165;SDS011;63747;48.042;10.088;2022-10-17T10:14:46;2.53;;;1.50;;
75165;SDS011;63747;48.042;10.088;2022-10-17T10:17:47;4.78;;;1.67;;
75165;SDS011;63747;48.042;10.088;2022-10-17T10:20:48;3.22;;;1.48;;
75165;SDS011;63747;48.042;10.088;2022-10-17T10:24:13;4.45;;;1.50;;
75165;SDS011;63747;48.042;10.088;2022-10-17T10:27:14;3.90;;;1.65;;
75165;SDS011;63747;48.042;10.088;2022-10-17T10:30:17;5.30;;;1.65;;
75165;SDS011;63747;48.042;10.088;2022-10-17T10:33:22;2.42;;;1.60;;
75165;SDS011;63747;48.042;10.088;2022-10-17T10:36:42;3.75;;;1.63;;
75165;SDS011;63747;48.042;10.088;2022-10-17T10:39:51;2.72;;;1.85;;
75165;SDS011;63747;48.042;10.088;2022-10-17T10:42:55;5.53;;;1.73;;
75165;SDS011;63747;48.042;10.088;2022-10-17T10:45:59;2.17;;;1.40;;
75165;SDS011;63747;48.042;10.088;2022-10-17T10:49:02;3.75;;;1.60;;
75165;SDS011;63747;48.042;10.088;2022-10-17T10:52:03;4.35;;;1.40;;
75165;SDS011;63747;48.042;10.088;2022-10-17T10:55:27;1.70;;;1.40;;
75165;SDS011;63747;48.042;10.088;2022-10-17T11:02:01;3.30;;;1.42;;
75165;SDS011;63747;48.042;10.088;2022-10-17T11:12:11;1.98;;;1.58;;
75165;SDS011;63747;48.042;10.088;2022-10-17T11:15:22;3.10;;;1.38;;
75165;SDS011;63747;48.042;10.088;2022-10-17T11:18:25;4.13;;;1.42;;
75165;SDS011;63747;48.042;10.088;2022-10-17T11:21:36;3.25;;;1.70;;
75165;SDS011;63747;48.042;10.088;2022-10-17T11:28:03;1.70;;;1.50;;
75165;SDS011;63747;48.042;10.088;2022-10-17T11:34:40;3.00;;;1.85;;
75165;SDS011;63747;48.042;10.088;2022-10-17T11:37:48;2.83;;;1.98;;
75165;SDS011;63747;48.042;10.088;2022-10-17T11:40:55;3.45;;;1.98;;
75165;SDS011;63747;48.042;10.088;2022-10-17T11:44:02;4.88;;;1.90;;
75165;SDS011;63747;48.042;10.088;2022-10-17T11:53:41;4.15;;;1.98;;
75165;SDS011;63747;48.042;10.088;2022-10-17T12:07:01;10.20;;;1.80;;
75165;SDS011;63747;48.042;10.088;2022-10-17T12:19:29;5.25;;;1.88;;
75165;SDS011;63747;48.042;10.088;2022-10-17T12:22:32;3.42;;;1.80;;
75165;SDS011;63747;48.042;10.088;2022-10-17T12:25:34;7.05;;;1.80;;
75165;SDS011;63747;48.042;10.088;2022-10-17T12:31:39;4.40;;;1.80;;
75165;SDS011;63747;48.042;10.088;2022-10-17T12:34:49;2.85;;;1.60;;
75165;SDS011;63747;48.042;10.088;2022-10-17T12:40:54;3.63;;;1.88;;
75165;SDS011;63747;48.042;10.088;2022-10-17T12:43:59;4.50;;;1.70;;
75165;SDS011;63747;48.042;10.088;2022-10-17T12:54:11;3.35;;;2.10;;
75165;SDS011;63747;48.042;10.088;2022-10-17T12:57:18;3.10;;;1.73;;
75165;SDS011;63747;48.042;10.088;2022-10-17T13:00:52;5.53;;;1.83;;
75165;SDS011;63747;48.042;10.088;2022-10-17T13:03:55;5.00;;;1.80;;
75165;SDS011;63747;48.042;10.088;2022-10-17T13:07:01;3.88;;;1.50;;
75165;SDS011;63747;48.042;10.088;2022-10-17T13:10:03;5.10;;;2.88;;
75165;SDS011;63747;48.042;10.088;2022-10-17T13:13:06;2.53;;;1.70;;
75165;SDS011;63747;48.042;10.088;2022-10-17T13:16:30;2.20;;;1.50;;
75165;SDS011;63747;48.042;10.088;2022-10-17T13:19:40;4.30;;;1.55;;
75165;SDS011;63747;48.042;10.088;2022-10-17T13:22:44;3.70;;;1.70;;
75165;SDS011;63747;48.042;10.088;2022-10-17T13:25:46;4.88;;;1.60;;
75165;SDS011;63747;48.042;10.088;2022-10-17T13:29:03;2.63;;;1.40;;
75165;SDS011;63747;48.042;10.088;2022-10-17T13:32:11;3.78;;;1.55;;
75165;SDS011;63747;48.042;10.088;2022-10-17T13:35:13;7.38;;;1.60;;
75165;SDS011;63747;48.042;10.088;2022-10-17T13:38:19;4.65;;;1.58;;
75165;SDS011;63747;48.042;10.088;2022-10-17T13:41:26;4.05;;;1.30;;
75165;SDS011;63747;48.042;10.088;2022-10-17T13:44:31;2.63;;;1.52;;
75165;SDS011;63747;48.042;10.088;2022-10-17T13:47:35;3.25;;;1.60;;
75165;SDS011;63747;48.042;10.088;2022-10-17T13:50:39;4.00;;;1.63;;
75165;SDS011;63747;48.042;10.088;2022-10-17T13:53:41;4.38;;;1.50;;
75165;SDS011;63747;48.042;10.088;2022-10-17T13:56:43;4.85;;;1.90;;
75165;SDS011;63747;48.042;10.088;2022-10-17T13:59:44;2.60;;;1.63;;
75165;SDS011;63747;48.042;10.088;2022-10-17T14:02:54;4.13;;;2.00;;
75165;SDS011;63747;48.042;10.088;2022-10-17T14:05:58;2.05;;;1.70;;
75165;SDS011;63747;48.042;10.088;2022-10-17T14:12:26;3.95;;;1.40;;
75165;SDS011;63747;48.042;10.088;2022-10-17T14:15:27;5.03;;;1.70;;
75165;SDS011;63747;48.042;10.088;2022-10-17T14:18:39;3.88;;;1.50;;
75165;SDS011;63747;48.042;10.088;2022-10-17T14:21:46;3.05;;;1.40;;
75165;SDS011;63747;48.042;10.088;2022-10-17T14:24:48;5.78;;;1.60;;
75165;SDS011;63747;48.042;10.088;2022-10-17T14:31:16;5.85;;;1.77;;
75165;SDS011;63747;48.042;10.088;2022-10-17T14:34:25;5.30;;;1.85;;
75165;SDS011;63747;48.042;10.088;2022-10-17T14:40:31;5.22;;;1.58;;
75165;SDS011;63747;48.042;10.088;2022-10-17T14:43:34;2.63;;;1.60;;
75165;SDS011;63747;48.042;10.088;2022-10-17T14:54:28;4.28;;;1.58;;
75165;SDS011;63747;48.042;10.088;2022-10-17T15:00:33;5.25;;;1.73;;
75165;SDS011;63747;48.042;10.088;2022-10-17T15:03:33;7.18;;;1.55;;
75165;SDS011;63747;48.042;10.088;2022-10-17T15:06:34;3.65;;;1.60;;
75165;SDS011;63747;48.042;10.088;2022-10-17T15:09:36;6.95;;;1.80;;
75165;SDS011;63747;48.042;10.088;2022-10-17T15:12:36;6.93;;;1.65;;
75165;SDS011;63747;48.042;10.088;2022-10-17T15:15:37;2.83;;;1.58;;
75165;SDS011;63747;48.042;10.088;2022-10-17T15:18:39;3.50;;;2.08;;
75165;SDS011;63747;48.042;10.088;2022-10-17T15:25:36;6.95;;;4.85;;
75165;SDS011;63747;48.042;10.088;2022-10-17T15:28:38;7.22;;;5.60;;
75165;SDS011;63747;48.042;10.088;2022-10-17T15:35:35;4.43;;;2.53;;
75165;SDS011;63747;48.042;10.088;2022-10-17T15:42:33;5.60;;;1.85;;
75165;SDS011;63747;48.042;10.088;2022-10-17T15:45:34;4.68;;;2.03;;
75165;SDS011;63747;48.042;10.088;2022-10-17T15:48:35;6.80;;;2.35;;
75165;SDS011;63747;48.042;10.088;2022-10-17T15:51:35;9.05;;;2.58;;
75165;SDS011;63747;48.042;10.088;2022-10-17T15:58:34;6.63;;;2.53;;
75165;SDS011;63747;48.042;10.088;2022-10-17T16:05:34;6.95;;;2.83;;
75165;SDS011;63747;48.042;10.088;2022-10-17T16:12:32;8.68;;;2.67;;
75165;SDS011;63747;48.042;10.088;2022-10-17T16:15:36;11.18;;;4.35;;
75165;SDS011;63747;48.042;10.088;2022-10-17T16:18:37;9.27;;;3.70;;
75165;SDS011;63747;48.042;10.088;2022-10-17T16:25:23;10.85;;;2.97;;
75165;SDS011;63747;48.042;10.088;2022-10-17T16:28:25;6.00;;;2.80;;
75165;SDS011;63747;48.042;10.088;2022-10-17T16:34:52;10.98;;;3.50;;
75165;SDS011;63747;48.042;10.088;2022-10-17T16:37:53;7.63;;;3.53;;
75165;SDS011;63747;48.042;10.088;2022-10-17T16:40:55;13.07;;;3.88;;
75165;SDS011;63747;48.042;10.088;2022-10-17T16:46:57;6.50;;;3.15;;
75165;SDS011;63747;48.042;10.088;2022-10-17T16:53:36;8.65;;;3.08;;
75165;SDS011;63747;48.042;10.088;2022-10-17T16:56:39;9.00;;;3.50;;
75165;SDS011;63747;48.042;10.088;2022-10-17T16:59:41;12.93;;;6.32;;
75165;SDS011;63747;48.042;10.088;2022-10-17T17:05:42;12.80;;;4.23;;
75165;SDS011;63747;48.042;10.088;2022-10-17T17:08:50;5.40;;;2.85;;
75165;SDS011;63747;48.042;10.088;2022-10-17T17:14:51;8.50;;;3.27;;
75165;SDS011;63747;48.042;10.088;2022-10-17T17:21:00;9.53;;;4.03;;
75165;SDS011;63747;48.042;10.088;2022-10-17T17:28:01;12.65;;;3.03;;
75165;SDS011;63747;48.042;10.088;2022-10-17T17:31:05;11.65;;;8.13;;
75165;SDS011;63747;48.042;10.088;2022-10-17T17:34:07;16.08;;;4.47;;
75165;SDS011;63747;48.042;10.088;2022-10-17T17:40:46;9.15;;;2.92;;
75165;SDS011;63747;48.042;10.088;2022-10-17T17:47:43;6.47;;;2.95;;
75165;SDS011;63747;48.042;10.088;2022-10-17T17:54:40;8.55;;;5.53;;
75165;SDS011;63747;48.042;10.088;2022-10-17T17:58:01;8.80;;;5.10;;
75165;SDS011;63747;48.042;10.088;2022-10-17T18:01:08;7.03;;;4.10;;
75165;SDS011;63747;48.042;10.088;2022-10-17T18:04:10;9.02;;;5.55;;
75165;SDS011;63747;48.042;10.088;2022-10-17T18:11:08;9.32;;;4.82;;
75165;SDS011;63747;48.042;10.088;2022-10-17T18:14:10;11.00;;;4.72;;
75165;SDS011;63747;48.042;10.088;2022-10-17T18:21:09;14.10;;;7.70;;
75165;SDS011;63747;48.042;10.088;2022-10-17T18:28:08;13.95;;;7.38;;
75165;SDS011;63747;48.042;10.088;2022-10-17T18:31:13;12.32;;;6.85;;
75165;SDS011;63747;48.042;10.088;2022-10-17T18:38:18;9.00;;;5.65;;
75165;SDS011;63747;48.042;10.088;2022-10-17T18:45:15;9.70;;;3.67;;
75165;SDS011;63747;48.042;10.088;2022-10-17T18:48:16;8.15;;;3.08;;
75165;SDS011;63747;48.042;10.088;2022-10-17T18:55:14;8.38;;;4.28;;
75165;SDS011;63747;48.042;10.088;2022-10-17T19:02:15;9.75;;;5.25;;
75165;SDS011;63747;48.042;10.088;2022-10-17T19:09:14;13.27;;;5.78;;
75165;SDS011;63747;48.042;10.088;2022-10-17T19:15:24;12.93;;;5.70;;
75165;SDS011;63747;48.042;10.088;2022-10-17T19:21:46;12.55;;;6.95;;
75165;SDS011;63747;48.042;10.088;2022-10-17T19:27:57;13.02;;;6.90;;
75165;SDS011;63747;48.042;10.088;2022-10-17T19:30:58;18.52;;;7.07;;
75165;SDS011;63747;48.042;10.088;2022-10-17T19:33:59;11.15;;;7.22;;
75165;SDS011;63747;48.042;10.088;2022-10-17T19:37:00;20.95;;;6.55;;
75165;SDS011;63747;48.042;10.088;2022-10-17T19:40:02;7.88;;;4.80;;
75165;SDS011;63747;48.042;10.088;2022-10-17T19:43:03;8.55;;;4.55;;
75165;SDS011;63747;48.042;10.088;2022-10-17T19:46:06;8.65;;;4.18;;
75165;SDS011;63747;48.042;10.088;2022-10-17T19:49:08;8.50;;;5.03;;
75165;SDS011;63747;48.042;10.088;2022-10-17T19:52:10;11.43;;;4.20;;
75165;SDS011;63747;48.042;10.088;2022-10-17T19:55:10;8.68;;;4.50;;
75165;SDS011;63747;48.042;10.088;2022-10-17T19:58:11;8.57;;;4.18;;
75165;SDS011;63747;48.042;10.088;2022-10-17T20:01:13;6.82;;;3.63;;
75165;SDS011;63747;48.042;10.088;2022-10-17T20:04:18;6.45;;;3.75;;
75165;SDS011;63747;48.042;10.088;2022-10-17T20:07:20;9.18;;;3.15;;
75165;SDS011;63747;48.042;10.088;2022-10-17T20:10:21;5.70;;;3.15;;
75165;SDS011;63747;48.042;10.088;2022-10-17T20:13:22;10.02;;;3.00;;
75165;SDS011;63747;48.042;10.088;2022-10-17T20:16:23;8.40;;;3.53;;
75165;SDS011;63747;48.042;10.088;2022-10-17T20:19:33;5.68;;;3.00;;
75165;SDS011;63747;48.042;10.088;2022-10-17T20:22:33;3.50;;;3.10;;
75165;SDS011;63747;48.042;10.088;2022-10-17T20:25:40;7.32;;;3.80;;
75165;SDS011;63747;48.042;10.088;2022-10-17T20:28:41;6.80;;;4.20;;
75165;SDS011;63747;48.042;10.088;2022-10-17T20:31:44;9.95;;;3.72;;
75165;SDS011;63747;48.042;10.088;2022-10-17T20:34:46;8.75;;;3.67;;
75165;SDS011;63747;48.042;10.088;2022-10-17T20:37:47;9.65;;;3.97;;
75165;SDS011;63747;48.042;10.088;2022-10-17T20:40:47;9.27;;;3.72;;
75165;SDS011;63747;48.042;10.088;2022-10-17T20:43:52;6.72;;;3.15;;
75165;SDS011;63747;48.042;10.088;2022-10-17T20:46:54;11.75;;;3.50;;
75165;SDS011;63747;48.042;10.088;2022-10-17T20:49:54;7.18;;;3.30;;
75165;SDS011;63747;48.042;10.088;2022-10-17T20:52:57;8.40;;;3.53;;
75165;SDS011;63747;48.042;10.088;2022-10-17T20:56:05;8.00;;;3.78;;
75165;SDS011;63747;48.042;10.088;2022-10-17T20:59:11;7.95;;;4.00;;
75165;SDS011;63747;48.042;10.088;2022-10-17T21:02:19;12.50;;;3.83;;
75165;SDS011;63747;48.042;10.088;2022-10-17T21:05:21;10.85;;;4.07;;
75165;SDS011;63747;48.042;10.088;2022-10-17T21:08:29;8.15;;;3.63;;
75165;SDS011;63747;48.042;10.088;2022-10-17T21:11:37;4.28;;;3.40;;
75165;SDS011;63747;48.042;10.088;2022-10-17T21:14:38;7.88;;;3.90;;
75165;SDS011;63747;48.042;10.088;2022-10-17T21:17:39;10.25;;;3.70;;
75165;SDS011;63747;48.042;10.088;2022-10-17T21:20:40;8.27;;;3.92;;
75165;SDS011;63747;48.042;10.088;2022-10-17T21:23:41;6.68;;;4.10;;
75165;SDS011;63747;48.042;10.088;2022-10-17T21:26:50;6.05;;;3.83;;
75165;SDS011;63747;48.042;10.088;2022-10-17T21:29:54;8.98;;;3.85;;
75165;SDS011;63747;48.042;10.088;2022-10-17T21:32:55;10.88;;;3.70;;
75165;SDS011;63747;48.042;10.088;2022-10-17T21:35:55;9.07;;;4.00;;
75165;SDS011;63747;48.042;10.088;2022-10-17T21:38:56;9.00;;;3.88;;
75165;SDS011;63747;48.042;10.088;2022-10-17T21:45:10;9.55;;;3.53;;
75165;SDS011;63747;48.042;10.088;2022-10-17T21:48:24;7.45;;;3.72;;
75165;SDS011;63747;48.042;10.088;2022-10-17T21:55:09;9.52;;;3.80;;
75165;SDS011;63747;48.042;10.088;2022-10-17T21:58:10;5.60;;;3.47;;
75165;SDS011;63747;48.042;10.088;2022-10-17T22:01:13;11.82;;;4.00;;
75165;SDS011;63747;48.042;10.088;2022-10-17T22:08:04;6.82;;;3.40;;
75165;SDS011;63747;48.042;10.088;2022-10-17T22:11:06;8.27;;;3.85;;
75165;SDS011;63747;48.042;10.088;2022-10-17T22:14:16;7.85;;;3.60;;
75165;SDS011;63747;48.042;10.088;2022-10-17T22:17:18;9.10;;;3.90;;
75165;SDS011;63747;48.042;10.088;2022-10-17T22:20:19;10.77;;;4.03;;
75165;SDS011;63747;48.042;10.088;2022-10-17T22:23:19;7.15;;;3.90;;
75165;SDS011;63747;48.042;10.088;2022-10-17T22:26:20;6.88;;;4.32;;
75165;SDS011;63747;48.042;10.088;2022-10-17T22:29:21;7.85;;;4.43;;
75165;SDS011;63747;48.042;10.088;2022-10-17T22:32:22;7.10;;;4.15;;
75165;SDS011;63747;48.042;10.088;2022-10-17T22:35:31;13.13;;;4.73;;
75165;SDS011;63747;48.042;10.088;2022-10-17T22:38:32;7.60;;;4.03;;